Time;durP1;ratioP1;P1;durP2;ratioP2;P2;SDS_P1;SDS_P2;PMS_P1;PMS_P2;Temp;Humidity;BMP_temperature;BMP_pressure;BME280_temperature;BME280_humidity;BME280_pressure;Samples;Min_cycle;Max_cycle;Signal;HPM_P1;HPM_P2
2022/05/29 00:01:50;;;;;;;5.22;2.90;;;;;;;8.25;80.64;101788.19;5112683;28;20031;-73
2022/05/29 00:04:15;;;;;;;4.03;2.00;;;;;;;8.29;80.03;101789.94;5111572;28;20031;-73
2022/05/29 00:06:44;;;;;;;5.60;2.42;;;;;;;8.31;80.07;101787.34;5111578;28;20455;-73
2022/05/29 00:09:13;;;;;;;7.70;2.97;;;;;;;8.22;80.84;101780.41;5112445;28;20040;-73
2022/05/29 00:11:38;;;;;;;5.78;2.30;;;;;;;8.20;80.54;101780.38;5111364;28;20043;-73
2022/05/29 00:14:05;;;;;;;7.00;2.45;;;;;;;8.14;81.57;101788.19;5112837;28;20464;-73
2022/05/29 00:16:30;;;;;;;7.53;2.28;;;;;;;8.01;81.50;101773.47;5111946;28;20471;-74
2022/05/29 00:18:56;;;;;;;4.13;2.33;;;;;;;8.03;81.57;101781.22;5111912;28;20077;-73
2022/05/29 00:21:22;;;;;;;6.18;2.30;;;;;;;8.01;81.83;101773.47;5111992;28;20031;-73
2022/05/29 00:23:49;;;;;;;11.50;2.70;;;;;;;8.01;81.56;101775.16;5111365;28;20058;-73
2022/05/29 00:26:16;;;;;;;9.45;2.75;;;;;;;7.93;82.52;101770.81;5111298;28;20024;-73
2022/05/29 00:28:42;;;;;;;8.68;2.50;;;;;;;7.92;82.43;101779.47;5112057;28;20048;-73
2022/05/29 00:31:07;;;;;;;6.78;2.50;;;;;;;7.86;82.08;101773.41;5105435;28;20051;-73
2022/05/29 00:33:32;;;;;;;9.82;2.78;;;;;;;7.83;82.87;101773.41;5103899;28;20122;-73
2022/05/29 00:35:58;;;;;;;10.50;3.00;;;;;;;7.81;83.11;101765.59;5112207;28;20483;-73
2022/05/29 00:38:23;;;;;;;7.15;3.03;;;;;;;7.73;83.31;101769.91;5112020;28;20055;-73
2022/05/29 00:41:04;;;;;;;5.10;2.88;;;;;;;7.72;83.12;101768.19;5110185;28;20035;-73
2022/05/29 00:43:30;;;;;;;11.20;3.08;;;;;;;7.66;83.92;101763.84;5112029;28;20031;-73
2022/05/29 00:46:01;;;;;;;6.95;3.05;;;;;;;7.65;84.37;101759.50;5102605;28;20014;-73
2022/05/29 00:48:27;;;;;;;7.60;2.83;;;;;;;7.65;84.33;101762.09;5090738;28;20107;-73
2022/05/29 00:51:05;;;;;;;8.75;3.03;;;;;;;7.62;84.14;101756.00;5094807;28;20020;-73
2022/05/29 00:53:33;;;;;;;8.32;3.30;;;;;;;7.60;84.65;101753.44;5107184;28;20445;-73
2022/05/29 00:56:07;;;;;;;9.13;3.03;;;;;;;7.53;84.54;101743.03;5097628;28;20142;-73
2022/05/29 00:58:33;;;;;;;8.15;3.55;;;;;;;7.48;84.89;101745.59;5112061;28;20047;-73
2022/05/29 01:00:58;;;;;;;6.80;2.88;;;;;;;7.42;84.79;101745.56;5115553;28;20237;-73
2022/05/29 01:03:24;;;;;;;7.22;3.08;;;;;;;7.36;85.33;101748.16;5109283;27;20077;-73
2022/05/29 01:05:50;;;;;;;6.10;3.20;;;;;;;7.31;85.78;101748.13;5108247;28;20467;-73
2022/05/29 01:08:20;;;;;;;11.02;3.50;;;;;;;7.35;86.12;101739.47;5115209;28;20076;-73
2022/05/29 01:10:48;;;;;;;10.40;3.65;;;;;;;7.47;86.23;101739.53;5116080;28;20023;-73
2022/05/29 01:13:32;;;;;;;10.73;3.92;;;;;;;7.55;85.65;101736.09;5115823;28;20040;-73
2022/05/29 01:16:34;;;;;;;12.85;4.32;;;;;;;7.69;84.52;101743.09;5114474;28;20435;-73
2022/05/29 01:19:20;;;;;;;9.50;4.10;;;;;;;7.72;85.50;101729.25;5104742;28;20047;-73
2022/05/29 01:22:10;;;;;;;6.93;3.75;;;;;;;7.80;85.10;101727.53;5100223;28;20073;-73
2022/05/29 01:24:58;;;;;;;11.40;4.15;;;;;;;7.78;84.83;101721.44;5115690;28;20114;-73
2022/05/29 01:28:00;;;;;;;12.70;4.40;;;;;;;7.76;84.80;101720.59;5114564;28;20040;-73
2022/05/29 01:30:31;;;;;;;12.93;4.68;;;;;;;7.72;85.31;101724.06;5114539;28;20046;-73
2022/05/29 01:33:22;;;;;;;13.57;4.20;;;;;;;7.72;84.83;101719.72;5114825;28;20032;-73
2022/05/29 01:35:54;;;;;;;8.50;3.88;;;;;;;7.74;85.95;101723.19;5101129;28;20454;-73
2022/05/29 01:38:30;;;;;;;9.18;4.40;;;;;;;7.69;85.29;101719.72;5115480;28;20019;-73
2022/05/29 01:41:19;;;;;;;11.05;5.05;;;;;;;7.63;84.27;101718.84;5115531;28;20423;-73
2022/05/29 01:44:03;;;;;;;8.95;4.00;;;;;;;7.57;85.27;101709.31;5114617;27;20023;-73
2022/05/29 01:46:34;;;;;;;8.05;3.58;;;;;;;7.51;85.68;101715.31;5115234;28;20602;-73
2022/05/29 01:49:21;;;;;;;8.70;3.45;;;;;;;7.47;85.47;101710.13;5114584;28;20031;-74
2022/05/29 01:51:51;;;;;;;11.90;3.92;;;;;;;7.38;86.00;101707.50;5114597;28;20091;-73
2022/05/29 01:54:37;;;;;;;9.48;4.35;;;;;;;7.38;85.75;101710.09;5110463;28;20059;-73
2022/05/29 01:57:13;;;;;;;11.48;3.80;;;;;;;7.39;86.41;101707.53;5105912;28;20035;-73
2022/05/29 01:59:51;;;;;;;8.25;3.70;;;;;;;7.39;86.09;101704.03;5113645;28;20542;-73
2022/05/29 02:02:29;;;;;;;10.40;3.50;;;;;;;7.30;86.85;101699.72;5113951;28;20031;-73
2022/05/29 02:04:59;;;;;;;8.65;3.42;;;;;;;7.19;87.21;101699.69;5099389;28;20012;-73
2022/05/29 02:07:47;;;;;;;7.78;3.55;;;;;;;7.13;87.20;101704.84;5113728;28;20020;-73
2022/05/29 02:10:24;;;;;;;12.20;4.38;;;;;;;7.04;87.39;101695.28;5113071;28;20027;-73
2022/05/29 02:12:56;;;;;;;7.80;3.78;;;;;;;6.96;87.80;101699.53;5112608;28;20138;-73
2022/05/29 02:15:47;;;;;;;7.82;3.63;;;;;;;6.98;87.71;101702.16;5113623;28;20031;-73
2022/05/29 02:18:20;;;;;;;8.32;3.78;;;;;;;6.95;88.56;101697.81;5112621;28;20043;-73
2022/05/29 02:20:48;;;;;;;;;;;;;;;7.03;84.93;101697.88;5113723;28;20031;-74
2022/05/29 02:23:35;;;;;;;14.27;4.13;;;;;;;7.08;87.15;101688.38;5112552;28;19922;-73
2022/05/29 02:26:04;;;;;;;7.75;3.78;;;;;;;7.10;88.52;101689.25;5104940;28;20024;-73
2022/05/29 02:28:44;;;;;;;7.55;3.75;;;;;;;7.19;88.10;101686.72;5112781;28;20028;-73
2022/05/29 02:31:46;;;;;;;10.80;4.35;;;;;;;7.22;88.66;101678.91;5113213;28;20106;-73
2022/05/29 02:34:33;;;;;;;9.40;3.70;;;;;;;7.33;87.35;101680.69;5101124;28;20106;-73
2022/05/29 02:37:18;;;;;;;7.35;3.83;;;;;;;7.34;86.84;101677.25;5113382;28;20036;-73
2022/05/29 02:40:01;;;;;;;9.00;4.00;;;;;;;7.32;86.38;101682.41;5111730;28;20023;-73
2022/05/29 02:42:43;;;;;;;8.52;3.80;;;;;;;7.22;86.57;101684.09;5101161;28;20027;-73
2022/05/29 02:45:23;;;;;;;8.90;3.47;;;;;;;7.16;86.65;101675.44;5113256;28;20023;-73
2022/05/29 02:48:12;;;;;;;7.90;4.00;;;;;;;7.04;87.55;101678.84;5112135;28;20030;-73
2022/05/29 02:50:51;;;;;;;9.68;3.80;;;;;;;6.96;87.52;101680.53;5112898;28;20031;-74
2022/05/29 02:53:16;;;;;;;8.73;3.70;;;;;;;6.93;88.62;101673.63;5112293;28;20026;-73
2022/05/29 02:55:43;;;;;;;6.60;3.70;;;;;;;6.92;88.13;101677.06;5062407;28;1020176;-73
2022/05/29 02:58:24;;;;;;;8.30;4.22;;;;;;;6.92;88.19;101669.28;5101383;28;20270;-73
2022/05/29 03:01:12;;;;;;;7.10;4.45;;;;;;;6.95;87.54;101663.25;5112659;28;20479;-73
2022/05/29 03:03:55;;;;;;;12.48;3.92;;;;;;;6.90;87.52;101663.25;5113750;28;20539;-73
2022/05/29 03:06:48;;;;;;;9.18;3.50;;;;;;;6.93;87.83;101670.16;5113453;28;20394;-73
2022/05/29 03:09:18;;;;;;;7.63;4.10;;;;;;;6.98;87.66;101664.13;5112590;28;20115;-73
2022/05/29 03:11:46;;;;;;;7.97;3.90;;;;;;;7.00;87.80;101658.97;5113609;28;20032;-74
2022/05/29 03:14:28;;;;;;;6.88;3.65;;;;;;;6.95;87.77;101642.50;5111904;28;20123;-73
2022/05/29 03:17:25;;;;;;;9.70;4.05;;;;;;;7.07;87.15;101665.03;5101223;28;20016;-73
2022/05/29 03:20:02;;;;;;;12.27;4.15;;;;;;;7.13;87.59;101657.25;5112780;28;20394;-73
2022/05/29 03:22:46;;;;;;;7.28;3.80;;;;;;;7.21;87.22;101664.22;5111788;28;20417;-73
2022/05/29 03:25:33;;;;;;;;;;;;;;;7.30;84.63;101654.75;5099604;28;20360;-74
2022/05/29 03:28:01;;;;;;;8.13;3.58;;;;;;;7.29;87.09;101653.84;5113168;28;19923;-73
2022/05/29 03:30:29;;;;;;;10.27;3.90;;;;;;;7.34;87.56;101651.31;5112401;28;20020;-73
2022/05/29 03:32:57;;;;;;;5.80;3.70;;;;;;;7.37;87.71;101649.56;5113248;28;20032;-73
2022/05/29 03:35:29;;;;;;;9.77;4.07;;;;;;;7.44;86.91;101653.06;5112339;28;20106;-73
2022/05/29 03:37:56;;;;;;;6.60;3.50;;;;;;;7.51;88.06;101652.19;5112946;28;20030;-73
2022/05/29 03:40:23;;;;;;;6.15;3.63;;;;;;;7.48;87.75;101640.06;5112958;28;20364;-73
2022/05/29 03:42:48;;;;;;;6.13;3.70;;;;;;;7.53;87.34;101639.25;5112322;28;20092;-73
2022/05/29 03:45:14;;;;;;;8.15;4.40;;;;;;;7.49;87.59;101628.00;5112843;28;20471;-73
2022/05/29 03:47:39;;;;;;;11.05;4.00;;;;;;;7.58;88.10;101638.38;5112004;28;20034;-73
2022/05/29 03:50:08;;;;;;;8.05;3.50;;;;;;;7.61;88.23;101638.38;5112143;28;20410;-73
2022/05/29 03:52:34;;;;;;;7.55;3.50;;;;;;;7.62;87.80;101634.94;5112631;28;20027;-73
2022/05/29 03:55:00;;;;;;;9.90;3.90;;;;;;;7.61;88.03;101635.78;5102905;28;20048;-73
2022/05/29 03:57:26;;;;;;;14.23;4.15;;;;;;;7.64;87.74;101635.78;5107456;28;20043;-73
2022/05/29 03:59:52;;;;;;;7.63;3.13;;;;;;;7.66;88.35;101630.59;5112659;28;20020;-73
2022/05/29 04:02:18;;;;;;;10.55;3.75;;;;;;;7.67;88.75;101630.59;5112509;28;20097;-73
2022/05/29 04:04:43;;;;;;;10.50;3.78;;;;;;;7.70;89.02;101627.16;5110808;28;20019;-73
2022/05/29 04:07:09;;;;;;;7.93;3.60;;;;;;;7.70;88.16;101628.00;5112774;28;20038;-73
2022/05/29 04:12:18;;;;;;;9.27;3.60;;;;;;;7.81;89.24;101624.53;5111932;28;20050;-73
2022/05/29 04:14:44;;;;;;;8.57;3.80;;;;;;;7.84;88.69;101621.97;5112267;28;20460;-73
2022/05/29 04:17:12;;;;;;;6.70;3.50;;;;;;;7.89;89.37;101621.09;5112300;28;20024;-73
2022/05/29 04:19:38;;;;;;;14.60;3.90;;;;;;;7.95;88.60;101620.25;5111717;28;20498;-73
2022/05/29 04:22:22;;;;;;;11.82;4.00;;;;;;;8.01;87.70;101619.34;5111622;28;20481;-73
2022/05/29 04:24:47;;;;;;;8.10;4.30;;;;;;;8.03;87.38;101618.50;5111505;28;20120;-73
2022/05/29 04:27:15;;;;;;;10.10;4.40;;;;;;;8.09;87.65;101618.50;5103213;28;20048;-73
2022/05/29 04:29:40;;;;;;;11.27;4.10;;;;;;;8.09;88.03;101621.09;5111803;28;20016;-73
2022/05/29 04:34:55;;;;;;;11.88;3.90;;;;;;;8.10;89.12;101615.03;5112283;28;20407;-73
2022/05/29 04:37:20;;;;;;;9.63;3.50;;;;;;;8.08;88.22;101613.31;5112125;28;20031;-74
2022/05/29 04:39:45;;;;;;;7.70;3.80;;;;;;;8.09;88.61;101617.63;5110156;28;20031;-74
2022/05/29 04:42:11;;;;;;;7.18;3.97;;;;;;;8.14;89.21;101624.56;5111867;28;20015;-74
2022/05/29 04:44:36;;;;;;;11.65;4.10;;;;;;;8.18;91.10;101630.63;5112206;28;20026;-74
2022/05/29 04:47:02;;;;;;;13.30;4.28;;;;;;;8.06;91.84;101634.06;5111404;28;20421;-75
2022/05/29 04:49:27;;;;;;;9.48;4.45;;;;;;;7.94;93.44;101631.47;5111867;28;20031;-76
2022/05/29 04:51:53;;;;;;;13.52;4.80;;;;;;;7.92;96.85;101639.28;5111818;28;20100;-77
2022/05/29 04:54:18;;;;;;;15.25;5.45;;;;;;;7.85;97.62;101632.34;5106790;28;20376;-77
2022/05/29 04:56:47;;;;;;;18.02;5.90;;;;;;;7.81;99.56;101624.53;5102284;28;20493;-77
2022/05/29 04:59:13;;;;;;;11.07;5.53;;;;;;;7.83;100.00;101620.22;5111619;28;20039;-77
2022/05/29 05:01:38;;;;;;;12.95;5.53;;;;;;;7.91;100.00;101628.88;5111230;28;20380;-77
2022/05/29 05:04:04;;;;;;;15.15;5.88;;;;;;;7.93;100.00;101624.56;5111992;28;20030;-77
2022/05/29 05:06:29;;;;;;;14.50;6.32;;;;;;;7.92;100.00;101617.66;5111040;28;20039;-77
2022/05/29 05:08:55;;;;;;;14.15;6.00;;;;;;;7.95;100.00;101623.69;5111909;28;20110;-77
2022/05/29 05:11:20;;;;;;;11.18;5.53;;;;;;;7.98;100.00;101620.25;5111407;28;20382;-77
2022/05/29 05:13:45;;;;;;;17.58;5.88;;;;;;;7.97;100.00;101611.56;5110279;28;20040;-77
2022/05/29 05:16:11;;;;;;;11.73;5.45;;;;;;;8.04;100.00;101615.03;5111743;28;20027;-77
2022/05/29 05:18:36;;;;;;;13.13;5.78;;;;;;;8.07;100.00;101606.38;5111772;28;20031;-77
2022/05/29 05:21:04;;;;;;;16.60;6.13;;;;;;;8.18;100.00;101617.63;5111205;28;20023;-77
2022/05/29 05:23:30;;;;;;;12.32;5.95;;;;;;;8.15;100.00;101617.63;5111703;28;20055;-77
2022/05/29 05:25:55;;;;;;;10.75;6.15;;;;;;;8.19;100.00;101612.41;5104635;28;20474;-77
2022/05/29 05:28:20;;;;;;;15.73;6.68;;;;;;;8.25;100.00;101613.28;5108869;28;20032;-77
2022/05/29 05:30:47;;;;;;;16.10;6.65;;;;;;;8.25;100.00;101605.50;5110871;28;20034;-77
2022/05/29 05:33:13;;;;;;;12.40;5.78;;;;;;;8.26;100.00;101612.41;5111544;28;20024;-77
2022/05/29 05:35:38;;;;;;;9.38;5.63;;;;;;;8.36;100.00;101608.94;5110906;28;20391;-77
2022/05/29 05:38:05;;;;;;;16.85;6.32;;;;;;;8.38;100.00;101604.63;5111625;28;20028;-77
2022/05/29 05:40:31;;;;;;;11.73;5.97;;;;;;;8.40;100.00;101602.88;5111167;28;20032;-77
2022/05/29 05:42:56;;;;;;;8.88;5.50;;;;;;;8.43;100.00;101605.47;5111159;28;20047;-77
2022/05/29 05:45:22;;;;;;;12.93;5.97;;;;;;;8.41;100.00;101597.69;5113736;28;20027;-77
2022/05/29 05:47:47;;;;;;;12.95;5.88;;;;;;;8.46;100.00;101609.81;5114557;28;20148;-77
2022/05/29 05:50:12;;;;;;;17.15;5.90;;;;;;;8.54;100.00;101608.06;5114168;28;20112;-77
2022/05/29 05:52:38;;;;;;;11.27;6.40;;;;;;;8.55;100.00;101607.19;5115098;28;20027;-77
2022/05/29 05:55:06;;;;;;;13.25;5.95;;;;;;;8.54;100.00;101606.31;5104670;28;20166;-77
2022/05/29 05:57:31;;;;;;;15.00;7.40;;;;;;;8.60;100.00;101601.13;5110365;28;20038;-77
2022/05/29 05:59:57;;;;;;;12.32;7.05;;;;;;;8.61;100.00;101605.44;5114288;28;20471;-77
2022/05/29 06:02:23;;;;;;;12.82;6.40;;;;;;;8.68;100.00;101601.94;5107408;28;20036;-77
2022/05/29 06:04:49;;;;;;;17.77;7.20;;;;;;;8.76;100.00;101593.25;5100410;28;20049;-77
2022/05/29 06:07:14;;;;;;;13.13;6.45;;;;;;;8.79;100.00;101593.22;5112205;28;20031;-77
2022/05/29 06:09:40;;;;;;;15.00;6.40;;;;;;;8.87;100.00;101591.47;5112768;28;20098;-77
2022/05/29 06:12:07;;;;;;;16.30;6.20;;;;;;;8.93;100.00;101601.84;5112302;28;20035;-77
2022/05/29 06:14:34;;;;;;;13.73;5.85;;;;;;;8.93;100.00;101596.66;5103039;28;20090;-77
2022/05/29 06:17:00;;;;;;;13.52;5.63;;;;;;;9.05;100.00;101591.38;5110496;28;20407;-77
2022/05/29 06:19:25;;;;;;;14.80;5.88;;;;;;;9.14;100.00;101596.53;5113091;28;20495;-77
2022/05/29 06:21:51;;;;;;;12.18;5.82;;;;;;;9.29;100.00;101599.94;5114430;28;20028;-77
2022/05/29 06:24:16;;;;;;;13.63;6.75;;;;;;;9.48;100.00;101603.25;5112762;28;20069;-77
2022/05/29 06:26:41;;;;;;;13.52;5.95;;;;;;;9.58;100.00;101592.78;5111942;28;20088;-77
2022/05/29 06:29:07;;;;;;;11.98;5.47;;;;;;;9.59;100.00;101602.31;5109768;28;20458;-77
2022/05/29 06:31:33;;;;;;;11.60;5.68;;;;;;;9.57;100.00;101595.38;5106365;28;20036;-76
2022/05/29 06:33:58;;;;;;;12.32;5.15;;;;;;;9.58;100.00;101597.09;5106036;28;20072;-77
2022/05/29 06:36:25;;;;;;;10.13;5.45;;;;;;;9.75;100.00;101599.63;5111128;28;20023;-77
2022/05/29 06:38:52;;;;;;;17.08;5.63;;;;;;;9.84;100.00;101600.41;5112027;28;20539;-76
2022/05/29 06:41:20;;;;;;;12.32;5.25;;;;;;;9.94;100.00;101602.91;5109956;28;20031;-76
2022/05/29 06:43:46;;;;;;;11.18;5.30;;;;;;;10.06;100.00;101602.81;5111401;28;20421;-77
2022/05/29 06:46:12;;;;;;;9.90;5.32;;;;;;;10.12;100.00;101607.09;5113371;28;20015;-76
2022/05/29 06:48:38;;;;;;;15.73;5.25;;;;;;;10.12;100.00;101597.53;5110561;28;20020;-76
2022/05/29 06:51:08;;;;;;;13.85;5.10;;;;;;;10.23;100.00;101600.03;5112106;28;20053;-76
2022/05/29 06:53:35;;;;;;;11.63;5.10;;;;;;;10.22;100.00;101598.31;5107274;28;20091;-76
2022/05/29 06:56:00;;;;;;;9.05;4.63;;;;;;;10.24;100.00;101601.78;5103276;28;20040;-76
2022/05/29 06:58:26;;;;;;;11.18;4.78;;;;;;;10.32;100.00;101594.75;5106066;28;20376;-76
2022/05/29 07:09:04;;;;;;;9.15;4.70;;;;;;;10.54;100.00;101593.66;5113908;28;19957;-76
2022/05/29 07:11:34;;;;;;;10.07;4.20;;;;;;;10.59;100.00;101595.34;5112569;28;20059;-76
2022/05/29 07:14:02;;;;;;;12.98;4.65;;;;;;;10.62;100.00;101592.69;5113265;28;20034;-76
2022/05/29 07:16:27;;;;;;;11.77;4.30;;;;;;;10.64;100.00;101583.13;5113169;28;20107;-76
2022/05/29 07:18:54;;;;;;;8.95;4.30;;;;;;;10.74;100.00;101589.94;5108633;28;20066;-76
2022/05/29 07:21:20;;;;;;;10.00;4.57;;;;;;;10.94;100.00;101587.09;5107469;28;20043;-76
2022/05/29 07:23:46;;;;;;;12.88;4.50;;;;;;;11.06;100.00;101579.09;5108921;28;20024;-76
2022/05/29 07:26:11;;;;;;;10.18;4.28;;;;;;;11.17;100.00;101581.56;5107555;28;20360;-76
2022/05/29 07:28:37;;;;;;;11.75;4.47;;;;;;;11.22;100.00;101583.22;5102371;28;20068;-74
2022/05/29 07:31:03;;;;;;;11.25;4.70;;;;;;;11.34;100.00;101581.31;5097884;28;20024;-77
2022/05/29 07:33:29;;;;;;;10.32;4.10;;;;;;;11.41;100.00;101575.09;5104977;28;20099;-74
2022/05/29 07:35:55;;;;;;;10.55;4.50;;;;;;;11.36;100.00;101580.41;5100932;28;20441;-75
2022/05/29 07:38:20;;;;;;;12.93;3.83;;;;;;;11.46;100.00;101579.38;5102948;28;20036;-71
2022/05/29 07:40:46;;;;;;;13.32;4.20;;;;;;;11.67;100.00;101577.31;5105752;28;20032;-78
2022/05/29 07:43:20;;;;;;;12.25;3.90;;;;;;;11.57;97.22;101578.34;5104753;28;20035;-78
2022/05/29 07:45:47;;;;;;;8.82;3.80;;;;;;;11.65;100.00;101573.88;5108201;28;20030;-75
2022/05/29 07:48:17;;;;;;;8.77;3.63;;;;;;;11.77;100.00;101581.53;5098598;28;20035;-74
2022/05/29 07:50:42;;;;;;;14.18;3.90;;;;;;;11.95;99.53;101581.22;5103324;28;20016;-75
2022/05/29 07:53:08;;;;;;;10.43;3.15;;;;;;;11.99;94.38;101575.94;5110610;28;20030;-75
2022/05/29 07:55:34;;;;;;;9.68;3.33;;;;;;;12.16;98.04;101564.31;5100403;28;20314;-75
2022/05/29 07:57:59;;;;;;;10.43;4.82;;;;;;;12.33;97.46;101564.00;5107498;28;20521;-75
2022/05/29 08:00:26;;;;;;;6.80;3.28;;;;;;;12.41;94.46;101563.81;5110705;28;20110;-74
2022/05/29 08:02:51;;;;;;;10.40;3.30;;;;;;;12.33;93.49;101566.59;5101734;28;20364;-74
2022/05/29 08:05:18;;;;;;;7.50;3.40;;;;;;;12.29;95.01;101561.44;5101666;28;20456;-75
2022/05/29 08:07:45;;;;;;;7.00;2.55;;;;;;;12.17;89.87;101566.03;5102019;28;20078;-75
2022/05/29 08:10:12;;;;;;;7.88;3.20;;;;;;;12.21;94.03;101564.22;5111676;28;20137;-75
2022/05/29 08:12:39;;;;;;;8.07;3.47;;;;;;;12.20;92.87;101570.34;5112585;28;20068;-75
2022/05/29 08:15:05;;;;;;;9.70;3.58;;;;;;;12.26;94.33;101564.13;5111725;28;20105;-75
2022/05/29 08:17:30;;;;;;;6.45;3.08;;;;;;;12.24;93.17;101574.63;5098331;28;20039;-74
2022/05/29 08:19:56;;;;;;;11.05;3.40;;;;;;;12.26;92.32;101561.50;5111674;28;20020;-74
2022/05/29 08:22:21;;;;;;;9.32;3.20;;;;;;;12.18;88.04;101567.75;5103521;28;20036;-74
2022/05/29 08:33:05;;;;;;;8.90;2.58;;;;;;;12.23;83.99;101551.09;5112654;28;20450;-74
2022/05/29 08:35:31;;;;;;;10.20;3.20;;;;;;;11.98;87.40;101556.78;5111588;28;20019;-74
2022/05/29 08:37:58;;;;;;;12.27;3.25;;;;;;;11.99;89.93;101540.22;5107974;28;20118;-74
2022/05/29 08:40:23;;;;;;;11.70;3.20;;;;;;;12.42;88.66;101547.22;5112131;28;20032;-75
2022/05/29 08:42:49;;;;;;;7.93;3.13;;;;;;;13.10;88.95;101544.91;5109529;28;20027;-73
2022/05/29 08:45:16;;;;;;;9.15;2.60;;;;;;;13.57;82.18;101544.75;5109913;28;20027;-73
2022/05/29 08:47:45;;;;;;;8.82;2.75;;;;;;;13.88;77.16;101538.72;5108889;28;20027;-73
2022/05/29 08:50:26;;;;;;;5.50;2.40;;;;;;;13.70;79.23;101546.16;5103273;28;20024;-73
2022/05/29 08:53:01;;;;;;;5.72;2.65;;;;;;;13.38;81.68;101548.69;5101845;28;20445;-73
2022/05/29 08:55:33;;;;;;;7.30;2.40;;;;;;;12.97;83.54;101542.59;5103342;28;20515;-74
2022/05/29 08:58:28;;;;;;;6.82;2.72;;;;;;;12.73;87.99;101544.88;5105661;28;20028;-73
2022/05/29 09:00:59;;;;;;;12.43;3.15;;;;;;;12.70;83.71;101541.47;5101444;28;20460;-73
2022/05/29 09:03:42;;;;;;;7.65;2.47;;;;;;;13.04;85.39;101541.56;5107604;28;20035;-73
2022/05/29 09:06:14;;;;;;;9.73;2.97;;;;;;;13.46;83.84;101528.41;5104435;28;20022;-73
2022/05/29 09:08:49;;;;;;;8.43;2.92;;;;;;;13.67;81.69;101533.13;5110874;28;20031;-73
2022/05/29 09:11:21;;;;;;;8.40;2.30;;;;;;;13.51;77.51;101529.16;5098955;28;20140;-74
2022/05/29 09:13:55;;;;;;;7.22;2.55;;;;;;;13.18;76.64;101536.00;5103007;28;20392;-73
2022/05/29 09:16:23;;;;;;;9.73;3.95;;;;;;;12.58;77.49;101532.09;5101292;28;20032;-73
2022/05/29 09:19:16;;;;;;;6.53;2.70;;;;;;;12.05;84.04;101532.25;5109056;28;20379;-74
2022/05/29 09:21:57;;;;;;;6.47;3.07;;;;;;;11.89;87.56;101526.44;5110789;28;20028;-74
2022/05/29 09:25:08;;;;;;;9.23;3.33;;;;;;;12.16;88.77;101521.59;5109156;28;20057;-73
2022/05/29 09:27:35;;;;;;;11.07;3.22;;;;;;;12.74;91.08;101520.41;5076799;28;20077;-73
2022/05/29 09:30:00;;;;;;;10.52;3.33;;;;;;;13.24;86.67;101512.31;5113155;28;20028;-74
2022/05/29 09:32:28;;;;;;;6.10;2.38;;;;;;;13.60;80.43;101513.19;5115513;28;20020;-74
2022/05/29 09:35:01;;;;;;;7.43;2.63;;;;;;;13.71;79.06;101520.81;5114625;28;20119;-74
2022/05/29 09:37:43;;;;;;;9.03;2.80;;;;;;;13.66;82.25;101514.81;5115364;28;20028;-74
2022/05/29 09:40:20;;;;;;;5.50;2.55;;;;;;;13.68;77.26;101516.50;5115477;28;20767;-74
2022/05/29 09:42:48;;;;;;;6.13;2.20;;;;;;;13.56;77.75;101515.03;5114718;28;20030;-74
2022/05/29 09:45:25;;;;;;;7.15;2.70;;;;;;;13.50;82.24;101511.72;5115235;28;20045;-74
2022/05/29 09:50:48;;;;;;;4.65;2.45;;;;;;;13.22;78.75;101511.50;5115252;28;20035;-74
2022/05/29 09:53:25;;;;;;;5.78;2.70;;;;;;;13.24;79.78;101504.44;5115280;28;20023;-73
2022/05/29 09:55:55;;;;;;;5.28;2.50;;;;;;;13.54;78.17;101502.91;5096403;28;20047;-73
2022/05/29 09:58:26;;;;;;;4.72;2.40;;;;;;;13.86;74.02;101498.56;5114922;28;20020;-73
2022/05/29 10:00:55;;;;;;;5.90;2.45;;;;;;;14.26;75.05;101485.22;5114773;28;20024;-73
2022/05/29 10:03:35;;;;;;;7.50;2.53;;;;;;;14.82;71.57;101492.38;5114002;28;20034;-73
2022/05/29 10:06:17;;;;;;;5.88;2.50;;;;;;;15.22;72.57;101477.03;5115172;28;20028;-74
2022/05/29 10:08:45;;;;;;;3.33;2.40;;;;;;;15.59;70.72;101478.44;5114952;28;20034;-73
2022/05/29 10:11:34;;;;;;;8.55;2.42;;;;;;;16.04;72.03;101488.28;5113957;28;20038;-73
2022/05/29 10:14:19;;;;;;;9.65;2.40;;;;;;;16.55;69.57;101478.53;5114626;28;20089;-73
2022/05/29 10:16:44;;;;;;;6.88;2.80;;;;;;;16.54;61.44;101479.44;5113873;28;20098;-73
2022/05/29 10:19:14;;;;;;;8.73;2.63;;;;;;;16.50;65.53;101480.47;5114667;28;20091;-74
2022/05/29 10:21:45;;;;;;;5.60;2.03;;;;;;;16.45;65.48;101479.78;5114418;28;20132;-73
2022/05/29 10:24:21;;;;;;;5.07;2.20;;;;;;;15.99;69.31;101492.88;5113805;27;20072;-74
2022/05/29 10:26:56;;;;;;;7.35;2.85;;;;;;;14.16;81.94;101482.00;5114294;28;20027;-77
2022/05/29 10:29:30;;;;;;;6.47;3.45;;;;;;;13.23;88.58;101497.50;5114543;28;20065;-76
2022/05/29 10:31:58;;;;;;;7.35;2.80;;;;;;;12.63;93.40;101496.25;5113449;28;20007;-76
2022/05/29 10:34:25;;;;;;;4.82;2.42;;;;;;;12.19;95.86;101483.19;5114263;28;20027;-76
2022/05/29 10:36:51;;;;;;;6.65;2.05;;;;;;;11.93;95.97;101491.56;5114204;28;20035;-77
2022/05/29 10:39:24;;;;;;;4.57;2.10;;;;;;;11.70;95.45;101491.91;5113625;28;20024;-77
2022/05/29 10:41:51;;;;;;;10.15;2.30;;;;;;;11.50;97.41;101486.19;5114297;28;20700;-77
2022/05/29 10:44:37;;;;;;;9.30;3.17;;;;;;;11.40;100.00;101487.22;5113380;28;20023;-77
2022/05/29 10:47:16;;;;;;;14.77;2.80;;;;;;;11.29;100.00;101489.16;5114162;28;20045;-77
2022/05/29 10:50:16;;;;;;;10.05;3.58;;;;;;;11.08;100.00;101493.81;5114208;28;20057;-77
2022/05/29 10:53:13;;;;;;;9.15;3.50;;;;;;;10.99;100.00;101497.44;5101624;28;20525;-77
2022/05/29 10:55:54;;;;;;;8.95;3.25;;;;;;;10.95;100.00;101497.50;5098924;28;20215;-77
2022/05/29 10:58:24;;;;;;;8.27;3.80;;;;;;;10.96;100.00;101501.84;5113243;28;20027;-77
2022/05/29 11:00:58;;;;;;;7.78;4.28;;;;;;;11.00;100.00;101508.75;5113692;28;20039;-77
2022/05/29 11:03:23;;;;;;;;;;;;;;;11.06;100.00;101502.56;5114228;28;20039;-77
2022/05/29 11:06:22;;;;;;;12.87;4.60;;;;;;;11.16;100.00;101502.41;5112712;28;19912;-78
2022/05/29 11:09:02;;;;;;;9.98;4.38;;;;;;;11.27;100.00;101497.00;5113724;28;20031;-76
2022/05/29 11:11:55;;;;;;;13.05;5.13;;;;;;;11.65;100.00;101490.31;5113441;28;20031;-77
2022/05/29 11:14:43;;;;;;;13.23;4.88;;;;;;;11.91;100.00;101488.09;5112904;28;20047;-77
2022/05/29 11:17:40;;;;;;;7.93;5.75;;;;;;;12.33;100.00;101480.31;5113907;28;20026;-78
2022/05/29 11:20:42;;;;;;;7.07;4.32;;;;;;;12.70;100.00;101482.16;5098881;28;20030;-77
2022/05/29 11:23:23;;;;;;;13.02;4.38;;;;;;;13.08;100.00;101478.66;5113566;28;20023;-77
2022/05/29 11:26:16;;;;;;;5.93;3.60;;;;;;;13.11;100.00;101485.56;5113395;28;20026;-77
2022/05/29 11:29:15;;;;;;;9.65;3.67;;;;;;;12.72;100.00;101485.59;5113306;28;20035;-77
2022/05/29 11:31:54;;;;;;;7.55;3.30;;;;;;;12.29;100.00;101473.41;5113178;28;20027;-77
2022/05/29 11:34:29;;;;;;;5.47;2.97;;;;;;;11.93;100.00;101483.72;5112431;28;20027;-77
2022/05/29 11:37:20;;;;;;;8.00;3.58;;;;;;;11.66;100.00;101481.56;5112888;28;20092;-78
2022/05/29 11:40:14;;;;;;;9.23;3.05;;;;;;;11.59;100.00;101493.00;5112874;28;20028;-77
2022/05/29 11:43:07;;;;;;;5.32;3.65;;;;;;;11.64;100.00;101488.56;5111101;28;20039;-77
2022/05/29 11:52:01;;;;;;;5.63;2.75;;;;;;;11.53;100.00;101485.28;5083810;28;20047;-78
2022/05/29 11:54:49;;;;;;;4.85;2.50;;;;;;;11.40;100.00;101487.22;5106662;28;20490;-78
2022/05/29 11:57:34;;;;;;;4.95;2.90;;;;;;;11.47;100.00;101481.88;5106883;28;20035;-78
2022/05/29 12:00:35;;;;;;;6.72;2.55;;;;;;;11.57;100.00;101489.56;5112914;28;20344;-77
2022/05/29 12:03:24;;;;;;;4.55;2.20;;;;;;;11.47;100.00;101479.25;5056034;28;20047;-77
2022/05/29 12:06:05;;;;;;;5.45;2.50;;;;;;;11.73;100.00;101484.03;5107340;28;20031;-77
2022/05/29 12:08:40;;;;;;;5.75;2.67;;;;;;;12.24;100.00;101477.88;5111887;28;20055;-77
2022/05/29 12:11:26;;;;;;;5.65;2.40;;;;;;;12.72;100.00;101482.97;5112489;28;20391;-77
2022/05/29 12:14:00;;;;;;;2.55;1.40;;;;;;;13.10;97.92;101470.75;5112379;28;20527;-77
2022/05/29 12:16:29;;;;;;;4.60;1.95;;;;;;;13.55;100.00;101462.69;5111425;28;20051;-76
2022/05/29 12:18:58;;;;;;;2.40;1.42;;;;;;;13.98;97.99;101456.28;5112375;28;20177;-76
2022/05/29 12:21:48;;;;;;;4.85;1.35;;;;;;;14.31;93.10;101457.09;5112109;28;20082;-76